sensor_id;sensor_type;location;lat;lon;timestamp;P1;durP1;ratioP1;P2;durP2;ratioP2
20621;SDS011;10470;42.670;23.354;2022-08-01T00:00:33;2.93;;;2.77;;
20621;SDS011;10470;42.670;23.354;2022-08-01T00:02:59;4.13;;;2.90;;
20621;SDS011;10470;42.670;23.354;2022-08-01T00:05:24;2.97;;;2.77;;
20621;SDS011;10470;42.670;23.354;2022-08-01T00:07:50;4.03;;;3.00;;
20621;SDS011;10470;42.670;23.354;2022-08-01T00:10:15;3.83;;;2.80;;
20621;SDS011;10470;42.670;23.354;2022-08-01T00:12:42;2.77;;;2.57;;
20621;SDS011;10470;42.670;23.354;2022-08-01T00:15:09;2.93;;;2.73;;
20621;SDS011;10470;42.670;23.354;2022-08-01T00:17:36;4.80;;;2.70;;
20621;SDS011;10470;42.670;23.354;2022-08-01T00:20:03;3.13;;;2.80;;
20621;SDS011;10470;42.670;23.354;2022-08-01T00:22:30;2.80;;;2.60;;
20621;SDS011;10470;42.670;23.354;2022-08-01T00:24:56;3.00;;;2.70;;
20621;SDS011;10470;42.670;23.354;2022-08-01T00:27:22;4.83;;;4.43;;
20621;SDS011;10470;42.670;23.354;2022-08-01T00:29:47;5.73;;;5.17;;
20621;SDS011;10470;42.670;23.354;2022-08-01T00:32:13;6.53;;;5.50;;
20621;SDS011;10470;42.670;23.354;2022-08-01T00:34:38;6.23;;;5.73;;
20621;SDS011;10470;42.670;23.354;2022-08-01T00:37:04;6.70;;;6.10;;
20621;SDS011;10470;42.670;23.354;2022-08-01T00:39:29;7.50;;;6.90;;
20621;SDS011;10470;42.670;23.354;2022-08-01T00:41:55;7.70;;;7.00;;
20621;SDS011;10470;42.670;23.354;2022-08-01T00:44:20;7.73;;;7.00;;
20621;SDS011;10470;42.670;23.354;2022-08-01T00:46:46;7.67;;;7.07;;
20621;SDS011;10470;42.670;23.354;2022-08-01T00:49:11;7.50;;;6.90;;
20621;SDS011;10470;42.670;23.354;2022-08-01T00:51:37;7.23;;;6.63;;
20621;SDS011;10470;42.670;23.354;2022-08-01T00:54:03;7.60;;;6.90;;
20621;SDS011;10470;42.670;23.354;2022-08-01T00:56:29;8.17;;;7.07;;
20621;SDS011;10470;42.670;23.354;2022-08-01T00:58:55;7.70;;;7.10;;
20621;SDS011;10470;42.670;23.354;2022-08-01T01:01:21;7.07;;;6.53;;
20621;SDS011;10470;42.670;23.354;2022-08-01T01:03:50;7.33;;;6.10;;
20621;SDS011;10470;42.670;23.354;2022-08-01T01:08:43;6.40;;;5.80;;
20621;SDS011;10470;42.670;23.354;2022-08-01T01:11:28;9.47;;;6.30;;
20621;SDS011;10470;42.670;23.354;2022-08-01T01:14:07;6.53;;;5.60;;
20621;SDS011;10470;42.670;23.354;2022-08-01T01:16:39;6.27;;;5.67;;
20621;SDS011;10470;42.670;23.354;2022-08-01T01:19:09;6.20;;;5.70;;
20621;SDS011;10470;42.670;23.354;2022-08-01T01:24:36;5.73;;;5.13;;
20621;SDS011;10470;42.670;23.354;2022-08-01T01:27:18;5.30;;;4.80;;
20621;SDS011;10470;42.670;23.354;2022-08-01T01:29:53;5.30;;;4.80;;
20621;SDS011;10470;42.670;23.354;2022-08-01T01:35:25;6.30;;;4.43;;
20621;SDS011;10470;42.670;23.354;2022-08-01T01:38:04;6.00;;;4.27;;
20621;SDS011;10470;42.670;23.354;2022-08-01T01:40:32;5.50;;;3.90;;
20621;SDS011;10470;42.670;23.354;2022-08-01T01:42:59;4.83;;;3.30;;
20621;SDS011;10470;42.670;23.354;2022-08-01T01:45:24;3.67;;;3.20;;
20621;SDS011;10470;42.670;23.354;2022-08-01T01:47:51;3.83;;;2.80;;
20621;SDS011;10470;42.670;23.354;2022-08-01T01:50:20;4.50;;;2.60;;
20621;SDS011;10470;42.670;23.354;2022-08-01T01:52:46;3.30;;;3.00;;
20621;SDS011;10470;42.670;23.354;2022-08-01T01:55:14;3.33;;;2.87;;
20621;SDS011;10470;42.670;23.354;2022-08-01T01:57:41;2.90;;;2.70;;
20621;SDS011;10470;42.670;23.354;2022-08-01T02:00:10;3.77;;;2.53;;
20621;SDS011;10470;42.670;23.354;2022-08-01T02:02:37;2.33;;;2.20;;
20621;SDS011;10470;42.670;23.354;2022-08-01T02:05:04;2.20;;;2.00;;
20621;SDS011;10470;42.670;23.354;2022-08-01T02:07:33;3.17;;;2.10;;
20621;SDS011;10470;42.670;23.354;2022-08-01T02:09:59;6.60;;;2.30;;
20621;SDS011;10470;42.670;23.354;2022-08-01T02:12:27;5.77;;;2.77;;
20621;SDS011;10470;42.670;23.354;2022-08-01T02:14:54;3.03;;;1.90;;
20621;SDS011;10470;42.670;23.354;2022-08-01T02:17:21;4.43;;;2.20;;
20621;SDS011;10470;42.670;23.354;2022-08-01T02:19:49;3.17;;;2.80;;
20621;SDS011;10470;42.670;23.354;2022-08-01T02:22:19;3.03;;;2.77;;
20621;SDS011;10470;42.670;23.354;2022-08-01T02:24:54;2.43;;;2.20;;
20621;SDS011;10470;42.670;23.354;2022-08-01T02:27:25;3.53;;;2.37;;
20621;SDS011;10470;42.670;23.354;2022-08-01T02:30:03;3.07;;;2.70;;
20621;SDS011;10470;42.670;23.354;2022-08-01T02:32:41;4.13;;;3.57;;
20621;SDS011;10470;42.670;23.354;2022-08-01T02:35:17;4.77;;;3.23;;
20621;SDS011;10470;42.670;23.354;2022-08-01T02:37:47;4.33;;;3.50;;
20621;SDS011;10470;42.670;23.354;2022-08-01T02:40:13;3.83;;;3.57;;
20621;SDS011;10470;42.670;23.354;2022-08-01T02:42:43;3.97;;;3.60;;
20621;SDS011;10470;42.670;23.354;2022-08-01T02:45:12;4.30;;;3.90;;
20621;SDS011;10470;42.670;23.354;2022-08-01T02:47:38;3.93;;;3.53;;
20621;SDS011;10470;42.670;23.354;2022-08-01T02:50:06;4.73;;;3.70;;
20621;SDS011;10470;42.670;23.354;2022-08-01T02:52:34;4.60;;;3.50;;
20621;SDS011;10470;42.670;23.354;2022-08-01T02:55:01;5.00;;;3.60;;
20621;SDS011;10470;42.670;23.354;2022-08-01T02:57:27;5.13;;;3.20;;
20621;SDS011;10470;42.670;23.354;2022-08-01T02:59:55;4.00;;;3.70;;
20621;SDS011;10470;42.670;23.354;2022-08-01T03:02:22;3.50;;;3.20;;
20621;SDS011;10470;42.670;23.354;2022-08-01T03:04:49;7.50;;;3.60;;
20621;SDS011;10470;42.670;23.354;2022-08-01T03:07:16;4.10;;;3.80;;
20621;SDS011;10470;42.670;23.354;2022-08-01T03:09:44;4.30;;;3.90;;
20621;SDS011;10470;42.670;23.354;2022-08-01T03:12:11;6.30;;;3.80;;
20621;SDS011;10470;42.670;23.354;2022-08-01T03:14:40;5.03;;;4.40;;
20621;SDS011;10470;42.670;23.354;2022-08-01T03:17:08;4.87;;;4.47;;
20621;SDS011;10470;42.670;23.354;2022-08-01T03:19:35;7.63;;;4.97;;
20621;SDS011;10470;42.670;23.354;2022-08-01T03:22:03;5.17;;;4.80;;
20621;SDS011;10470;42.670;23.354;2022-08-01T03:24:36;6.97;;;4.87;;
20621;SDS011;10470;42.670;23.354;2022-08-01T03:27:04;5.53;;;4.60;;
20621;SDS011;10470;42.670;23.354;2022-08-01T03:29:31;4.97;;;4.40;;
20621;SDS011;10470;42.670;23.354;2022-08-01T03:31:59;5.40;;;4.90;;
20621;SDS011;10470;42.670;23.354;2022-08-01T03:34:25;5.50;;;5.00;;
20621;SDS011;10470;42.670;23.354;2022-08-01T03:36:56;6.70;;;4.60;;
20621;SDS011;10470;42.670;23.354;2022-08-01T03:39:34;4.30;;;4.00;;
20621;SDS011;10470;42.670;23.354;2022-08-01T03:42:07;5.93;;;4.67;;
20621;SDS011;10470;42.670;23.354;2022-08-01T03:44:39;4.67;;;4.37;;
20621;SDS011;10470;42.670;23.354;2022-08-01T03:47:07;6.03;;;4.43;;
20621;SDS011;10470;42.670;23.354;2022-08-01T03:49:35;5.40;;;4.90;;
20621;SDS011;10470;42.670;23.354;2022-08-01T03:52:07;9.33;;;5.40;;
20621;SDS011;10470;42.670;23.354;2022-08-01T03:54:38;5.90;;;4.40;;
20621;SDS011;10470;42.670;23.354;2022-08-01T03:57:08;4.67;;;4.23;;
20621;SDS011;10470;42.670;23.354;2022-08-01T03:59:35;6.63;;;4.40;;
20621;SDS011;10470;42.670;23.354;2022-08-01T04:02:02;5.07;;;4.10;;
20621;SDS011;10470;42.670;23.354;2022-08-01T04:04:28;5.93;;;4.13;;
20621;SDS011;10470;42.670;23.354;2022-08-01T04:06:54;8.33;;;4.33;;
20621;SDS011;10470;42.670;23.354;2022-08-01T04:09:20;5.50;;;4.50;;
20621;SDS011;10470;42.670;23.354;2022-08-01T04:11:49;4.80;;;4.40;;
20621;SDS011;10470;42.670;23.354;2022-08-01T04:14:15;6.17;;;4.40;;
20621;SDS011;10470;42.670;23.354;2022-08-01T04:16:40;10.07;;;4.90;;
20621;SDS011;10470;42.670;23.354;2022-08-01T04:19:06;7.47;;;5.00;;
20621;SDS011;10470;42.670;23.354;2022-08-01T04:21:32;6.23;;;5.03;;
20621;SDS011;10470;42.670;23.354;2022-08-01T04:24:01;7.00;;;5.30;;
20621;SDS011;10470;42.670;23.354;2022-08-01T04:26:32;6.40;;;5.20;;
20621;SDS011;10470;42.670;23.354;2022-08-01T04:29:01;8.57;;;5.50;;
20621;SDS011;10470;42.670;23.354;2022-08-01T04:31:30;6.77;;;5.70;;
20621;SDS011;10470;42.670;23.354;2022-08-01T04:33:56;6.17;;;5.67;;
20621;SDS011;10470;42.670;23.354;2022-08-01T04:36:23;6.60;;;5.77;;
20621;SDS011;10470;42.670;23.354;2022-08-01T04:38:50;6.17;;;5.57;;
20621;SDS011;10470;42.670;23.354;2022-08-01T04:41:19;9.73;;;5.57;;
20621;SDS011;10470;42.670;23.354;2022-08-01T04:43:47;7.63;;;5.30;;
20621;SDS011;10470;42.670;23.354;2022-08-01T04:46:13;9.40;;;5.73;;
20621;SDS011;10470;42.670;23.354;2022-08-01T04:48:39;8.63;;;5.67;;
20621;SDS011;10470;42.670;23.354;2022-08-01T04:51:16;9.13;;;5.73;;
20621;SDS011;10470;42.670;23.354;2022-08-01T04:53:43;6.83;;;5.53;;
20621;SDS011;10470;42.670;23.354;2022-08-01T04:56:10;9.77;;;5.90;;
20621;SDS011;10470;42.670;23.354;2022-08-01T04:58:38;11.83;;;6.80;;
20621;SDS011;10470;42.670;23.354;2022-08-01T05:01:05;10.67;;;5.83;;
20621;SDS011;10470;42.670;23.354;2022-08-01T05:03:31;11.57;;;7.20;;
20621;SDS011;10470;42.670;23.354;2022-08-01T05:05:56;11.63;;;6.47;;
20621;SDS011;10470;42.670;23.354;2022-08-01T05:08:21;11.07;;;6.80;;
20621;SDS011;10470;42.670;23.354;2022-08-01T05:10:47;11.23;;;6.90;;
20621;SDS011;10470;42.670;23.354;2022-08-01T05:13:12;11.33;;;7.07;;
20621;SDS011;10470;42.670;23.354;2022-08-01T05:15:38;11.37;;;8.03;;
20621;SDS011;10470;42.670;23.354;2022-08-01T05:18:03;10.23;;;6.87;;
20621;SDS011;10470;42.670;23.354;2022-08-01T05:20:29;10.47;;;6.23;;
20621;SDS011;10470;42.670;23.354;2022-08-01T05:22:55;10.80;;;6.43;;
20621;SDS011;10470;42.670;23.354;2022-08-01T05:25:20;11.73;;;6.50;;
20621;SDS011;10470;42.670;23.354;2022-08-01T05:27:46;6.73;;;5.20;;
20621;SDS011;10470;42.670;23.354;2022-08-01T05:30:12;8.27;;;5.90;;
20621;SDS011;10470;42.670;23.354;2022-08-01T05:32:37;6.07;;;4.97;;
20621;SDS011;10470;42.670;23.354;2022-08-01T05:35:03;7.87;;;5.37;;
20621;SDS011;10470;42.670;23.354;2022-08-01T05:37:29;10.07;;;5.47;;
20621;SDS011;10470;42.670;23.354;2022-08-01T05:39:54;9.67;;;5.43;;
20621;SDS011;10470;42.670;23.354;2022-08-01T05:42:20;7.03;;;4.80;;
20621;SDS011;10470;42.670;23.354;2022-08-01T05:44:46;7.77;;;5.30;;
20621;SDS011;10470;42.670;23.354;2022-08-01T05:47:12;7.73;;;4.60;;
20621;SDS011;10470;42.670;23.354;2022-08-01T05:49:38;6.37;;;4.57;;
20621;SDS011;10470;42.670;23.354;2022-08-01T05:52:04;5.87;;;4.20;;
20621;SDS011;10470;42.670;23.354;2022-08-01T05:54:30;8.70;;;4.20;;
20621;SDS011;10470;42.670;23.354;2022-08-01T05:56:56;6.60;;;4.00;;
20621;SDS011;10470;42.670;23.354;2022-08-01T05:59:24;8.33;;;4.40;;
20621;SDS011;10470;42.670;23.354;2022-08-01T06:01:50;5.60;;;4.30;;
20621;SDS011;10470;42.670;23.354;2022-08-01T06:04:16;4.50;;;3.80;;
20621;SDS011;10470;42.670;23.354;2022-08-01T06:06:41;6.33;;;3.40;;
20621;SDS011;10470;42.670;23.354;2022-08-01T06:09:07;3.67;;;3.37;;
20621;SDS011;10470;42.670;23.354;2022-08-01T06:11:32;5.07;;;3.60;;
20621;SDS011;10470;42.670;23.354;2022-08-01T06:13:58;5.20;;;4.03;;
20621;SDS011;10470;42.670;23.354;2022-08-01T06:16:23;4.83;;;3.60;;
20621;SDS011;10470;42.670;23.354;2022-08-01T06:18:49;4.00;;;2.80;;
20621;SDS011;10470;42.670;23.354;2022-08-01T06:21:14;3.87;;;2.57;;
20621;SDS011;10470;42.670;23.354;2022-08-01T06:23:40;2.87;;;2.67;;
20621;SDS011;10470;42.670;23.354;2022-08-01T06:26:07;3.93;;;2.70;;
20621;SDS011;10470;42.670;23.354;2022-08-01T06:28:33;3.63;;;2.90;;
20621;SDS011;10470;42.670;23.354;2022-08-01T06:30:59;2.80;;;2.60;;
20621;SDS011;10470;42.670;23.354;2022-08-01T06:33:24;6.40;;;2.43;;
20621;SDS011;10470;42.670;23.354;2022-08-01T06:35:51;4.53;;;2.40;;
20621;SDS011;10470;42.670;23.354;2022-08-01T06:38:16;3.57;;;2.30;;
20621;SDS011;10470;42.670;23.354;2022-08-01T06:40:42;3.97;;;2.50;;
20621;SDS011;10470;42.670;23.354;2022-08-01T06:43:07;6.20;;;2.63;;
20621;SDS011;10470;42.670;23.354;2022-08-01T06:45:33;3.07;;;2.53;;
20621;SDS011;10470;42.670;23.354;2022-08-01T06:47:58;2.80;;;2.50;;
20621;SDS011;10470;42.670;23.354;2022-08-01T06:50:24;3.63;;;2.50;;
20621;SDS011;10470;42.670;23.354;2022-08-01T06:52:49;2.97;;;2.50;;
20621;SDS011;10470;42.670;23.354;2022-08-01T06:55:15;4.03;;;2.73;;
20621;SDS011;10470;42.670;23.354;2022-08-01T06:57:50;3.10;;;2.80;;
20621;SDS011;10470;42.670;23.354;2022-08-01T07:00:17;2.97;;;2.77;;
20621;SDS011;10470;42.670;23.354;2022-08-01T07:02:47;2.60;;;2.40;;
20621;SDS011;10470;42.670;23.354;2022-08-01T07:05:14;2.73;;;2.53;;
20621;SDS011;10470;42.670;23.354;2022-08-01T07:07:39;2.87;;;2.67;;
20621;SDS011;10470;42.670;23.354;2022-08-01T07:10:05;3.73;;;2.77;;
20621;SDS011;10470;42.670;23.354;2022-08-01T07:12:31;3.50;;;2.83;;
20621;SDS011;10470;42.670;23.354;2022-08-01T07:14:58;2.80;;;2.60;;
20621;SDS011;10470;42.670;23.354;2022-08-01T07:17:23;5.23;;;3.07;;
20621;SDS011;10470;42.670;23.354;2022-08-01T07:19:49;3.33;;;2.73;;
20621;SDS011;10470;42.670;23.354;2022-08-01T07:22:15;3.30;;;2.97;;
20621;SDS011;10470;42.670;23.354;2022-08-01T07:24:41;8.23;;;3.03;;
20621;SDS011;10470;42.670;23.354;2022-08-01T07:27:06;4.47;;;2.97;;
20621;SDS011;10470;42.670;23.354;2022-08-01T07:29:32;3.77;;;2.67;;
20621;SDS011;10470;42.670;23.354;2022-08-01T07:31:57;3.30;;;2.90;;
20621;SDS011;10470;42.670;23.354;2022-08-01T07:34:23;4.67;;;2.77;;
20621;SDS011;10470;42.670;23.354;2022-08-01T07:36:50;3.53;;;3.10;;
20621;SDS011;10470;42.670;23.354;2022-08-01T07:39:16;3.73;;;2.77;;
20621;SDS011;10470;42.670;23.354;2022-08-01T07:41:41;6.10;;;2.87;;
20621;SDS011;10470;42.670;23.354;2022-08-01T07:44:07;2.53;;;1.90;;
20621;SDS011;10470;42.670;23.354;2022-08-01T07:46:32;3.20;;;2.97;;
20621;SDS011;10470;42.670;23.354;2022-08-01T07:48:58;3.00;;;2.70;;
20621;SDS011;10470;42.670;23.354;2022-08-01T07:51:23;5.77;;;3.07;;
20621;SDS011;10470;42.670;23.354;2022-08-01T07:53:49;3.70;;;2.73;;
20621;SDS011;10470;42.670;23.354;2022-08-01T07:56:14;3.00;;;2.70;;
20621;SDS011;10470;42.670;23.354;2022-08-01T07:58:40;3.53;;;2.67;;
20621;SDS011;10470;42.670;23.354;2022-08-01T08:01:05;5.87;;;2.77;;
20621;SDS011;10470;42.670;23.354;2022-08-01T08:03:31;3.10;;;2.80;;
20621;SDS011;10470;42.670;23.354;2022-08-01T08:05:56;4.50;;;2.73;;
20621;SDS011;10470;42.670;23.354;2022-08-01T08:08:22;3.53;;;2.90;;
20621;SDS011;10470;42.670;23.354;2022-08-01T08:10:48;3.53;;;2.60;;
20621;SDS011;10470;42.670;23.354;2022-08-01T08:13:13;3.50;;;2.97;;
20621;SDS011;10470;42.670;23.354;2022-08-01T08:15:39;3.47;;;3.17;;
20621;SDS011;10470;42.670;23.354;2022-08-01T08:18:04;4.33;;;3.10;;
20621;SDS011;10470;42.670;23.354;2022-08-01T08:20:30;3.13;;;2.90;;
20621;SDS011;10470;42.670;23.354;2022-08-01T08:22:56;5.60;;;2.80;;
20621;SDS011;10470;42.670;23.354;2022-08-01T08:25:23;5.20;;;3.17;;
20621;SDS011;10470;42.670;23.354;2022-08-01T08:27:50;4.53;;;3.20;;
20621;SDS011;10470;42.670;23.354;2022-08-01T08:30:16;6.23;;;2.90;;
20621;SDS011;10470;42.670;23.354;2022-08-01T08:32:41;3.10;;;2.80;;
20621;SDS011;10470;42.670;23.354;2022-08-01T08:35:07;3.63;;;2.90;;
20621;SDS011;10470;42.670;23.354;2022-08-01T08:37:33;4.43;;;3.00;;
20621;SDS011;10470;42.670;23.354;2022-08-01T08:40:00;5.93;;;3.40;;
20621;SDS011;10470;42.670;23.354;2022-08-01T08:42:25;4.27;;;3.00;;
20621;SDS011;10470;42.670;23.354;2022-08-01T08:44:51;5.53;;;2.63;;
20621;SDS011;10470;42.670;23.354;2022-08-01T08:47:19;4.07;;;2.83;;
20621;SDS011;10470;42.670;23.354;2022-08-01T08:49:47;3.80;;;2.90;;
20621;SDS011;10470;42.670;23.354;2022-08-01T08:52:14;3.67;;;3.00;;
20621;SDS011;10470;42.670;23.354;2022-08-01T08:54:41;3.20;;;2.70;;
20621;SDS011;10470;42.670;23.354;2022-08-01T08:57:07;4.90;;;3.00;;
20621;SDS011;10470;42.670;23.354;2022-08-01T08:59:35;3.53;;;2.93;;
20621;SDS011;10470;42.670;23.354;2022-08-01T09:02:02;3.17;;;2.87;;
20621;SDS011;10470;42.670;23.354;2022-08-01T09:04:29;3.30;;;2.90;;
20621;SDS011;10470;42.670;23.354;2022-08-01T09:06:55;3.33;;;2.37;;
20621;SDS011;10470;42.670;23.354;2022-08-01T09:09:22;4.70;;;2.50;;
20621;SDS011;10470;42.670;23.354;2022-08-01T09:11:48;5.77;;;2.70;;
20621;SDS011;10470;42.670;23.354;2022-08-01T09:14:14;3.50;;;2.60;;
20621;SDS011;10470;42.670;23.354;2022-08-01T09:19:39;2.83;;;2.63;;
20621;SDS011;10470;42.670;23.354;2022-08-01T09:22:07;5.03;;;2.23;;
20621;SDS011;10470;42.670;23.354;2022-08-01T09:24:37;2.80;;;2.50;;
20621;SDS011;10470;42.670;23.354;2022-08-01T09:27:20;3.17;;;2.50;;
20621;SDS011;10470;42.670;23.354;2022-08-01T09:29:50;3.23;;;2.40;;
20621;SDS011;10470;42.670;23.354;2022-08-01T09:32:19;4.57;;;3.13;;
20621;SDS011;10470;42.670;23.354;2022-08-01T09:34:45;3.40;;;2.50;;
20621;SDS011;10470;42.670;23.354;2022-08-01T09:37:12;2.50;;;2.30;;
20621;SDS011;10470;42.670;23.354;2022-08-01T09:39:42;2.60;;;2.40;;
20621;SDS011;10470;42.670;23.354;2022-08-01T09:42:23;3.47;;;2.50;;
20621;SDS011;10470;42.670;23.354;2022-08-01T09:44:51;3.33;;;2.50;;
20621;SDS011;10470;42.670;23.354;2022-08-01T09:47:16;4.40;;;2.83;;
20621;SDS011;10470;42.670;23.354;2022-08-01T09:49:46;6.67;;;2.93;;
20621;SDS011;10470;42.670;23.354;2022-08-01T09:52:23;3.93;;;2.60;;
20621;SDS011;10470;42.670;23.354;2022-08-01T09:54:57;3.27;;;2.57;;
20621;SDS011;10470;42.670;23.354;2022-08-01T09:57:24;4.33;;;3.20;;
20621;SDS011;10470;42.670;23.354;2022-08-01T09:59:54;4.27;;;3.40;;
20621;SDS011;10470;42.670;23.354;2022-08-01T10:02:33;3.10;;;2.90;;
20621;SDS011;10470;42.670;23.354;2022-08-01T10:04:59;2.90;;;2.70;;
20621;SDS011;10470;42.670;23.354;2022-08-01T10:07:26;4.00;;;3.17;;
20621;SDS011;10470;42.670;23.354;2022-08-01T10:09:52;3.97;;;2.77;;
20621;SDS011;10470;42.670;23.354;2022-08-01T10:12:18;2.77;;;2.47;;
20621;SDS011;10470;42.670;23.354;2022-08-01T10:14:48;2.70;;;2.50;;
20621;SDS011;10470;42.670;23.354;2022-08-01T10:17:16;4.37;;;3.00;;
20621;SDS011;10470;42.670;23.354;2022-08-01T10:19:43;5.90;;;2.60;;
20621;SDS011;10470;42.670;23.354;2022-08-01T10:22:09;3.00;;;2.40;;
20621;SDS011;10470;42.670;23.354;2022-08-01T10:24:39;5.03;;;3.00;;
20621;SDS011;10470;42.670;23.354;2022-08-01T10:27:07;2.80;;;2.40;;
20621;SDS011;10470;42.670;23.354;2022-08-01T10:29:39;3.53;;;3.03;;
20621;SDS011;10470;42.670;23.354;2022-08-01T10:32:13;4.13;;;3.47;;
20621;SDS011;10470;42.670;23.354;2022-08-01T10:34:40;3.40;;;2.70;;
20621;SDS011;10470;42.670;23.354;2022-08-01T10:37:06;3.07;;;2.50;;
20621;SDS011;10470;42.670;23.354;2022-08-01T10:39:32;3.57;;;2.90;;
20621;SDS011;10470;42.670;23.354;2022-08-01T10:41:59;3.80;;;3.47;;
20621;SDS011;10470;42.670;23.354;2022-08-01T10:44:25;3.80;;;2.70;;
20621;SDS011;10470;42.670;23.354;2022-08-01T10:46:54;2.63;;;2.43;;
20621;SDS011;10470;42.670;23.354;2022-08-01T10:49:34;2.73;;;2.40;;
20621;SDS011;10470;42.670;23.354;2022-08-01T10:52:06;3.70;;;2.20;;
20621;SDS011;10470;42.670;23.354;2022-08-01T10:54:37;3.50;;;2.20;;
20621;SDS011;10470;42.670;23.354;2022-08-01T10:57:04;2.57;;;2.20;;
20621;SDS011;10470;42.670;23.354;2022-08-01T10:59:31;3.70;;;2.23;;
20621;SDS011;10470;42.670;23.354;2022-08-01T11:02:03;3.13;;;1.80;;
20621;SDS011;10470;42.670;23.354;2022-08-01T11:07:17;4.20;;;2.23;;
20621;SDS011;10470;42.670;23.354;2022-08-01T11:09:46;4.30;;;2.67;;
20621;SDS011;10470;42.670;23.354;2022-08-01T11:12:16;3.27;;;2.70;;
20621;SDS011;10470;42.670;23.354;2022-08-01T11:17:30;4.60;;;2.50;;
20621;SDS011;10470;42.670;23.354;2022-08-01T11:20:04;2.43;;;2.30;;
20621;SDS011;10470;42.670;23.354;2022-08-01T11:22:30;3.10;;;2.40;;
20621;SDS011;10470;42.670;23.354;2022-08-01T11:24:55;3.17;;;2.53;;
20621;SDS011;10470;42.670;23.354;2022-08-01T11:27:26;2.63;;;2.30;;
20621;SDS011;10470;42.670;23.354;2022-08-01T11:32:56;3.37;;;2.60;;
20621;SDS011;10470;42.670;23.354;2022-08-01T11:35:23;2.63;;;2.43;;
20621;SDS011;10470;42.670;23.354;2022-08-01T11:37:51;2.60;;;2.40;;
20621;SDS011;10470;42.670;23.354;2022-08-01T11:42:46;6.00;;;2.30;;
20621;SDS011;10470;42.670;23.354;2022-08-01T11:45:13;3.90;;;2.33;;
20621;SDS011;10470;42.670;23.354;2022-08-01T11:47:46;4.23;;;2.47;;
20621;SDS011;10470;42.670;23.354;2022-08-01T11:53:11;2.50;;;2.30;;
20621;SDS011;10470;42.670;23.354;2022-08-01T11:55:43;2.57;;;2.10;;
20621;SDS011;10470;42.670;23.354;2022-08-01T11:58:13;2.70;;;2.30;;
20621;SDS011;10470;42.670;23.354;2022-08-01T12:00:39;3.17;;;2.40;;
20621;SDS011;10470;42.670;23.354;2022-08-01T12:03:06;2.93;;;2.60;;
20621;SDS011;10470;42.670;23.354;2022-08-01T12:05:33;2.30;;;2.20;;
20621;SDS011;10470;42.670;23.354;2022-08-01T12:08:01;5.63;;;2.67;;
20621;SDS011;10470;42.670;23.354;2022-08-01T12:10:29;3.37;;;2.40;;
20621;SDS011;10470;42.670;23.354;2022-08-01T12:13:02;3.27;;;2.50;;
20621;SDS011;10470;42.670;23.354;2022-08-01T12:15:33;3.17;;;2.50;;
20621;SDS011;10470;42.670;23.354;2022-08-01T12:18:00;3.53;;;2.73;;
20621;SDS011;10470;42.670;23.354;2022-08-01T12:20:31;2.80;;;2.60;;
20621;SDS011;10470;42.670;23.354;2022-08-01T12:23:02;3.70;;;2.60;;
20621;SDS011;10470;42.670;23.354;2022-08-01T12:25:33;4.53;;;2.53;;
20621;SDS011;10470;42.670;23.354;2022-08-01T12:28:08;2.83;;;2.63;;
20621;SDS011;10470;42.670;23.354;2022-08-01T12:30:36;4.47;;;2.50;;
20621;SDS011;10470;42.670;23.354;2022-08-01T12:33:03;2.63;;;2.40;;
20621;SDS011;10470;42.670;23.354;2022-08-01T12:35:31;3.97;;;2.60;;
20621;SDS011;10470;42.670;23.354;2022-08-01T12:38:01;3.97;;;2.97;;
20621;SDS011;10470;42.670;23.354;2022-08-01T12:40:40;3.17;;;2.80;;
20621;SDS011;10470;42.670;23.354;2022-08-01T12:43:07;3.00;;;2.80;;
20621;SDS011;10470;42.670;23.354;2022-08-01T12:45:38;2.93;;;2.70;;
20621;SDS011;10470;42.670;23.354;2022-08-01T12:48:10;4.17;;;2.60;;
20621;SDS011;10470;42.670;23.354;2022-08-01T12:50:38;4.57;;;2.70;;
20621;SDS011;10470;42.670;23.354;2022-08-01T12:53:05;5.60;;;2.90;;
20621;SDS011;10470;42.670;23.354;2022-08-01T12:55:34;2.97;;;2.77;;
20621;SDS011;10470;42.670;23.354;2022-08-01T12:58:13;3.63;;;2.93;;
20621;SDS011;10470;42.670;23.354;2022-08-01T13:00:40;3.07;;;2.70;;
20621;SDS011;10470;42.670;23.354;2022-08-01T13:08:09;2.77;;;2.53;;
20621;SDS011;10470;42.670;23.354;2022-08-01T13:10:39;2.90;;;2.60;;
20621;SDS011;10470;42.670;23.354;2022-08-01T13:13:06;3.10;;;2.43;;
20621;SDS011;10470;42.670;23.354;2022-08-01T13:15:33;3.87;;;2.67;;
20621;SDS011;10470;42.670;23.354;2022-08-01T13:18:13;3.93;;;2.67;;
20621;SDS011;10470;42.670;23.354;2022-08-01T13:21:10;3.77;;;2.50;;
20621;SDS011;10470;42.670;23.354;2022-08-01T13:23:36;3.17;;;2.30;;
20621;SDS011;10470;42.670;23.354;2022-08-01T13:26:02;2.50;;;2.30;;
20621;SDS011;10470;42.670;23.354;2022-08-01T13:28:29;2.80;;;2.60;;
20621;SDS011;10470;42.670;23.354;2022-08-01T13:31:00;2.90;;;2.60;;
20621;SDS011;10470;42.670;23.354;2022-08-01T13:33:40;3.57;;;2.80;;
20621;SDS011;10470;42.670;23.354;2022-08-01T13:36:07;2.70;;;2.60;;
20621;SDS011;10470;42.670;23.354;2022-08-01T13:38:33;3.17;;;2.87;;
20621;SDS011;10470;42.670;23.354;2022-08-01T13:41:17;3.00;;;2.80;;
20621;SDS011;10470;42.670;23.354;2022-08-01T13:43:42;3.13;;;2.80;;
20621;SDS011;10470;42.670;23.354;2022-08-01T13:46:08;2.63;;;2.50;;
20621;SDS011;10470;42.670;23.354;2022-08-01T13:48:33;3.23;;;2.73;;
20621;SDS011;10470;42.670;23.354;2022-08-01T13:50:59;3.17;;;2.40;;
20621;SDS011;10470;42.670;23.354;2022-08-01T13:53:25;2.70;;;2.60;;
20621;SDS011;10470;42.670;23.354;2022-08-01T13:55:51;2.90;;;2.67;;
20621;SDS011;10470;42.670;23.354;2022-08-01T13:58:17;2.80;;;2.60;;
20621;SDS011;10470;42.670;23.354;2022-08-01T14:00:42;2.80;;;2.60;;
20621;SDS011;10470;42.670;23.354;2022-08-01T14:03:08;2.70;;;2.40;;
20621;SDS011;10470;42.670;23.354;2022-08-01T14:05:35;2.83;;;2.40;;
20621;SDS011;10470;42.670;23.354;2022-08-01T14:08:02;4.87;;;2.30;;
20621;SDS011;10470;42.670;23.354;2022-08-01T14:10:27;3.47;;;2.37;;
20621;SDS011;10470;42.670;23.354;2022-08-01T14:12:54;3.27;;;2.20;;
20621;SDS011;10470;42.670;23.354;2022-08-01T14:15:22;2.53;;;2.33;;
20621;SDS011;10470;42.670;23.354;2022-08-01T14:17:48;3.53;;;2.60;;
20621;SDS011;10470;42.670;23.354;2022-08-01T14:20:14;2.87;;;2.40;;
20621;SDS011;10470;42.670;23.354;2022-08-01T14:22:39;2.47;;;2.27;;
20621;SDS011;10470;42.670;23.354;2022-08-01T14:25:06;2.57;;;2.37;;
20621;SDS011;10470;42.670;23.354;2022-08-01T14:27:32;2.60;;;2.47;;
20621;SDS011;10470;42.670;23.354;2022-08-01T14:30:01;2.77;;;2.33;;
20621;SDS011;10470;42.670;23.354;2022-08-01T14:32:27;2.47;;;2.30;;
20621;SDS011;10470;42.670;23.354;2022-08-01T14:34:53;2.77;;;2.57;;
20621;SDS011;10470;42.670;23.354;2022-08-01T14:37:18;2.20;;;2.00;;
20621;SDS011;10470;42.670;23.354;2022-08-01T14:39:44;2.30;;;2.10;;
20621;SDS011;10470;42.670;23.354;2022-08-01T14:42:09;2.30;;;2.20;;
20621;SDS011;10470;42.670;23.354;2022-08-01T14:44:35;2.33;;;2.10;;
20621;SDS011;10470;42.670;23.354;2022-08-01T14:47:00;2.47;;;2.27;;
20621;SDS011;10470;42.670;23.354;2022-08-01T14:49:26;2.23;;;2.13;;
20621;SDS011;10470;42.670;23.354;2022-08-01T14:51:51;2.50;;;2.30;;
20621;SDS011;10470;42.670;23.354;2022-08-01T14:54:17;3.43;;;2.13;;
20621;SDS011;10470;42.670;23.354;2022-08-01T14:56:42;3.63;;;2.10;;
20621;SDS011;10470;42.670;23.354;2022-08-01T14:59:08;2.20;;;2.10;;
20621;SDS011;10470;42.670;23.354;2022-08-01T15:01:33;4.83;;;2.00;;
20621;SDS011;10470;42.670;23.354;2022-08-01T15:03:58;4.80;;;2.17;;
20621;SDS011;10470;42.670;23.354;2022-08-01T15:06:24;1.97;;;1.87;;